createdAt,value
2024-04-12T00:00:23.710Z,91.71
2024-04-12T00:01:23.731Z,91.82
2024-04-12T00:02:23.765Z,92.32
2024-04-12T00:03:23.824Z,92.38
2024-04-12T00:04:23.666Z,92.49
2024-04-12T00:05:23.642Z,92.69
2024-04-12T00:06:23.699Z,92.79
2024-04-12T00:07:23.696Z,92.59
2024-04-12T00:08:23.617Z,91.97
2024-04-12T00:09:23.653Z,91.77
2024-04-12T00:10:23.700Z,91.77
2024-04-12T00:11:23.712Z,91.97
2024-04-12T00:12:23.796Z,91.87
2024-04-12T00:13:23.707Z,91.67
2024-04-12T00:14:23.798Z,91.97
2024-04-12T00:15:23.709Z,92.28
2024-04-12T00:16:23.525Z,92.49
2024-04-12T00:17:23.583Z,92.28
2024-04-12T00:18:23.590Z,92.08
2024-04-12T00:19:23.529Z,92.08
2024-04-12T00:20:23.488Z,92.38
2024-04-12T00:21:23.472Z,92.28
2024-04-12T00:22:23.488Z,92.28
2024-04-12T00:23:23.450Z,91.97
2024-04-12T00:24:23.499Z,91.87
2024-04-12T00:25:23.478Z,92.08
2024-04-12T00:26:23.430Z,91.16
2024-04-12T00:27:23.710Z,91.05
2024-04-12T00:28:23.407Z,91.01
2024-04-12T00:29:23.388Z,91.22
2024-04-12T00:30:23.393Z,91.52
2024-04-12T00:31:23.390Z,91.73
2024-04-12T00:32:31.243Z,91.63
2024-04-12T00:33:23.474Z,91.01
2024-04-12T00:34:23.341Z,91.31
2024-04-12T00:35:23.329Z,91.93
2024-04-12T00:36:23.324Z,92.28
2024-04-12T00:37:23.303Z,92.14
2024-04-12T00:38:23.351Z,92.08
2024-04-12T00:39:23.295Z,92.03
2024-04-12T00:40:23.267Z,91.93
2024-04-12T00:41:23.270Z,91.31
2024-04-12T00:42:23.260Z,91.22
2024-04-12T00:43:23.256Z,91.67
2024-04-12T00:44:23.256Z,92.28
2024-04-12T00:45:23.220Z,92.59
2024-04-12T00:46:23.274Z,92.69
2024-04-12T00:47:23.226Z,92.69
2024-04-12T00:48:23.418Z,92.69
2024-04-12T00:49:23.179Z,92.38
2024-04-12T00:50:23.229Z,92.18
2024-04-12T00:51:23.163Z,92.18
2024-04-12T00:52:23.155Z,92.28
2024-04-12T00:53:23.138Z,92.49
2024-04-12T00:54:23.152Z,92.69
2024-04-12T00:55:23.108Z,93.00
2024-04-12T00:56:23.138Z,92.83
2024-04-12T00:57:23.100Z,92.94
2024-04-12T00:58:23.084Z,93.15
2024-04-12T00:59:23.080Z,93.25
2024-04-12T01:00:23.057Z,92.94
2024-04-12T01:01:23.119Z,93.04
2024-04-12T01:02:23.134Z,92.94
2024-04-12T01:03:23.128Z,93.04
2024-04-12T01:04:23.126Z,93.04
2024-04-12T01:05:23.008Z,92.98
2024-04-12T01:06:23.016Z,93.49
2024-04-12T01:07:22.979Z,93.70
2024-04-12T01:08:23.008Z,93.70
2024-04-12T01:09:22.953Z,93.70
2024-04-12T01:10:22.958Z,93.80
2024-04-12T01:11:22.958Z,93.74
2024-04-12T01:12:22.934Z,93.95
2024-04-12T01:13:22.976Z,94.15
2024-04-12T01:14:22.902Z,94.56
2024-04-12T01:15:22.910Z,94.87
2024-04-12T01:16:22.885Z,94.87
2024-04-12T01:17:22.890Z,94.87
2024-04-12T01:18:22.956Z,94.77
2024-04-12T01:19:22.885Z,95.28
2024-04-12T01:20:23.716Z,95.69
2024-04-12T01:21:22.831Z,95.90
2024-04-12T01:22:22.825Z,95.90
2024-04-12T01:23:22.807Z,95.69
2024-04-12T01:24:22.807Z,95.49
2024-04-12T01:25:22.829Z,95.18
2024-04-12T01:26:22.780Z,95.12
2024-04-12T01:27:22.775Z,95.43
2024-04-12T01:28:22.753Z,95.74
2024-04-12T01:29:22.740Z,95.74
2024-04-12T01:30:22.740Z,95.74
2024-04-12T01:31:22.739Z,95.74
2024-04-12T01:32:22.851Z,95.64
2024-04-12T01:33:22.794Z,95.43
2024-04-12T01:34:22.692Z,95.53
2024-04-12T01:35:22.684Z,95.43
2024-04-12T01:36:22.666Z,95.53
2024-04-12T01:37:22.663Z,95.53
2024-04-12T01:38:22.642Z,95.53
2024-04-12T01:39:22.683Z,95.74
2024-04-12T01:40:22.633Z,95.94
2024-04-12T01:41:22.599Z,96.15
2024-04-12T01:42:23.213Z,96.40
2024-04-12T01:43:23.158Z,96.60
2024-04-12T01:44:22.581Z,96.19
2024-04-12T01:45:22.609Z,95.68
2024-04-12T01:46:22.551Z,95.98
2024-04-12T01:47:22.604Z,96.40
2024-04-12T01:48:22.685Z,96.50
2024-04-12T01:49:22.525Z,96.30
2024-04-12T01:50:22.539Z,96.19
2024-04-12T01:51:22.538Z,95.98
2024-04-12T01:52:22.484Z,95.78
2024-04-12T01:53:22.473Z,95.89
2024-04-12T01:54:22.462Z,95.98
2024-04-12T01:55:22.473Z,96.09
2024-04-12T01:56:22.452Z,96.23
2024-04-12T01:57:22.443Z,96.44
2024-04-12T01:58:22.456Z,96.44
2024-04-12T01:59:22.432Z,95.93
2024-04-12T02:00:22.388Z,96.14
2024-04-12T02:01:22.383Z,96.44
2024-04-12T02:02:22.378Z,97.16
2024-04-12T02:03:22.419Z,97.57
2024-04-12T02:04:23.172Z,97.57
2024-04-12T02:05:22.340Z,97.67
2024-04-12T02:06:22.327Z,97.78
2024-04-12T02:07:22.320Z,97.78
2024-04-12T02:08:22.308Z,97.47
2024-04-12T02:09:22.317Z,97.27
2024-04-12T02:10:22.313Z,97.16
2024-04-12T02:11:22.340Z,97.06
2024-04-12T02:12:22.355Z,97.06
2024-04-12T02:13:24.339Z,97.16
2024-04-12T02:14:22.237Z,97.27
2024-04-12T02:15:22.230Z,97.27
2024-04-12T02:16:22.281Z,97.16
2024-04-12T02:17:22.233Z,97.27
2024-04-12T02:18:22.963Z,97.37
2024-04-12T02:19:22.204Z,97.16
2024-04-12T02:20:22.188Z,97.06
2024-04-12T02:21:22.227Z,96.95
2024-04-12T02:22:22.157Z,96.95
2024-04-12T02:23:22.329Z,96.91
2024-04-12T02:24:22.143Z,96.91
2024-04-12T02:25:22.115Z,97.02
2024-04-12T02:26:22.105Z,97.02
2024-04-12T02:27:22.129Z,96.91
2024-04-12T02:28:22.080Z,96.70
2024-04-12T02:29:22.082Z,96.70
2024-04-12T02:30:22.072Z,96.45
2024-04-12T02:31:22.058Z,95.98
2024-04-12T02:32:22.114Z,95.84
2024-04-12T02:33:22.100Z,96.04
2024-04-12T02:34:22.030Z,95.94
2024-04-12T02:35:22.017Z,95.94
2024-04-12T02:36:22.004Z,95.64
2024-04-12T02:37:21.987Z,95.53
2024-04-12T02:38:21.975Z,95.64
2024-04-12T02:39:22.015Z,95.32
2024-04-12T02:40:21.965Z,95.43
2024-04-12T02:41:22.001Z,95.74
2024-04-12T02:42:21.928Z,95.84
2024-04-12T02:43:21.926Z,95.98
2024-04-12T02:44:21.965Z,96.09
2024-04-12T02:45:21.918Z,96.09
2024-04-12T02:46:21.913Z,96.30
2024-04-12T02:47:21.932Z,96.40
2024-04-12T02:48:22.161Z,96.19
2024-04-12T02:49:21.854Z,96.30
2024-04-12T02:50:21.838Z,96.50
2024-04-12T02:51:21.842Z,96.70
2024-04-12T02:52:21.815Z,96.81
2024-04-12T02:53:21.830Z,96.81
2024-04-12T02:54:25.372Z,96.70
2024-04-12T02:55:21.815Z,96.81
2024-04-12T02:56:21.894Z,96.70
2024-04-12T02:57:21.785Z,96.70
2024-04-12T02:58:21.756Z,96.70
2024-04-12T02:59:21.790Z,97.02
2024-04-12T03:00:21.811Z,97.32
2024-04-12T03:01:21.848Z,97.42
2024-04-12T03:02:21.836Z,97.32
2024-04-12T03:03:21.849Z,97.42
2024-04-12T03:04:21.710Z,97.12
2024-04-12T03:05:21.699Z,97.12
2024-04-12T03:06:21.659Z,97.32
2024-04-12T03:07:21.689Z,97.53
2024-04-12T03:08:21.670Z,97.53
2024-04-12T03:09:21.646Z,97.42
2024-04-12T03:10:21.619Z,97.63
2024-04-12T03:11:21.692Z,97.53
2024-04-12T03:12:21.650Z,97.73
2024-04-12T03:13:21.599Z,97.78
2024-04-12T03:14:21.632Z,97.88
2024-04-12T03:15:21.564Z,98.08
2024-04-12T03:16:21.645Z,98.19
2024-04-12T03:17:21.552Z,98.50
2024-04-12T03:18:21.637Z,98.60
2024-04-12T03:19:21.528Z,98.70
2024-04-12T03:20:21.534Z,98.91
2024-04-12T03:21:21.492Z,99.01
2024-04-12T03:22:21.534Z,99.11
2024-04-12T03:23:21.485Z,99.01
2024-04-12T03:24:21.482Z,99.11
2024-04-12T03:25:21.468Z,99.32
2024-04-12T03:26:21.531Z,99.52
2024-04-12T03:27:21.428Z,99.52
2024-04-12T03:28:21.438Z,99.52
2024-04-12T03:29:21.420Z,99.52
2024-04-12T03:30:21.397Z,99.52
2024-04-12T03:31:21.388Z,99.42
2024-04-12T03:32:21.448Z,99.32
2024-04-12T03:33:21.410Z,99.42
2024-04-12T03:34:21.346Z,99.42
2024-04-12T03:35:21.379Z,99.32
2024-04-12T03:36:21.343Z,99.32
2024-04-12T03:37:21.321Z,99.32
2024-04-12T03:38:21.360Z,99.63
2024-04-12T03:39:23.369Z,99.52
2024-04-12T03:40:21.281Z,99.21
2024-04-12T03:41:21.280Z,99.21
2024-04-12T03:42:21.260Z,99.32
2024-04-12T03:43:21.248Z,99.32
2024-04-12T03:44:21.293Z,99.42
2024-04-12T03:45:21.285Z,99.63
2024-04-12T03:46:21.230Z,99.52
2024-04-12T03:47:21.255Z,99.73
2024-04-12T03:48:21.344Z,99.73
2024-04-12T03:49:21.187Z,99.73
2024-04-12T03:50:21.212Z,99.63
2024-04-12T03:51:21.294Z,99.73
2024-04-12T03:52:21.376Z,99.83
2024-04-12T03:53:21.156Z,99.83
2024-04-12T03:54:21.142Z,99.73
2024-04-12T03:55:21.142Z,99.73
2024-04-12T03:56:21.123Z,99.93
2024-04-12T03:57:21.125Z,99.99
2024-04-12T03:58:21.108Z,99.99
2024-04-12T03:59:21.095Z,99.93
2024-04-12T04:00:21.125Z,99.93
2024-04-12T04:01:21.069Z,99.93
2024-04-12T04:02:21.161Z,99.83
2024-04-12T04:03:21.106Z,99.99
2024-04-12T04:04:21.027Z,99.99
2024-04-12T04:05:21.015Z,99.99
2024-04-12T04:06:20.958Z,99.99
2024-04-12T04:07:21.277Z,99.99
2024-04-12T04:08:21.054Z,99.99
2024-04-12T04:09:21.066Z,99.99
2024-04-12T04:10:20.914Z,99.99
2024-04-12T04:11:20.955Z,99.99
2024-04-12T04:12:20.882Z,99.89
2024-04-12T04:13:20.874Z,99.68
2024-04-12T04:14:20.915Z,99.89
2024-04-12T04:15:20.956Z,99.89
2024-04-12T04:16:20.830Z,99.68
2024-04-12T04:17:20.889Z,99.58
2024-04-12T04:18:20.934Z,99.48
2024-04-12T04:19:20.908Z,99.68
2024-04-12T04:20:20.817Z,99.89
2024-04-12T04:21:20.836Z,99.79
2024-04-12T04:22:20.767Z,99.99
2024-04-12T04:23:20.766Z,99.93
2024-04-12T04:24:20.754Z,99.93
2024-04-12T04:25:20.921Z,99.93
2024-04-12T04:26:20.727Z,99.99
2024-04-12T04:27:20.766Z,99.99
2024-04-12T04:28:20.701Z,99.99
2024-04-12T04:29:20.699Z,99.99
2024-04-12T04:30:20.743Z,99.99
2024-04-12T04:31:20.677Z,99.99
2024-04-12T04:32:20.770Z,99.99
2024-04-12T04:33:20.783Z,99.99
2024-04-12T04:34:20.636Z,99.99
2024-04-12T04:35:20.628Z,99.99
2024-04-12T04:36:20.621Z,99.99
2024-04-12T04:37:23.390Z,99.99
2024-04-12T04:38:20.631Z,99.99
2024-04-12T04:39:20.639Z,99.99
2024-04-12T04:40:20.584Z,99.99
2024-04-12T04:41:20.756Z,99.99
2024-04-12T04:42:20.550Z,99.99
2024-04-12T04:43:20.539Z,99.99
2024-04-12T04:44:20.531Z,99.99
2024-04-12T04:45:21.114Z,99.99
2024-04-12T04:46:20.510Z,99.99
2024-04-12T04:47:20.534Z,99.99
2024-04-12T04:48:20.587Z,99.99
2024-04-12T04:49:20.576Z,99.99
2024-04-12T04:50:21.289Z,99.99
2024-04-12T04:51:20.617Z,99.99
2024-04-12T04:52:20.443Z,99.99
2024-04-12T04:53:20.431Z,99.99
2024-04-12T04:54:20.421Z,99.99
2024-04-12T04:55:20.436Z,99.99
2024-04-12T04:56:20.404Z,99.99
2024-04-12T04:57:20.420Z,99.99
2024-04-12T04:58:20.381Z,99.99
2024-04-12T04:59:20.370Z,99.99
2024-04-12T05:00:20.897Z,99.99
2024-04-12T05:01:20.355Z,99.99
2024-04-12T05:02:20.413Z,99.99
2024-04-12T05:03:20.426Z,99.99
2024-04-12T05:04:20.338Z,99.99
2024-04-12T05:05:22.982Z,99.99
2024-04-12T05:06:20.347Z,99.99
2024-04-12T05:07:20.316Z,99.99
2024-04-12T05:08:20.271Z,99.99
2024-04-12T05:09:20.260Z,99.99
2024-04-12T05:10:20.270Z,99.99
2024-04-12T05:11:20.242Z,99.99
2024-04-12T05:12:20.303Z,99.99
2024-04-12T05:13:20.233Z,99.99
2024-04-12T05:14:20.230Z,99.99
2024-04-12T05:15:20.210Z,99.99
2024-04-12T05:16:20.196Z,99.99
2024-04-12T05:17:20.206Z,99.99
2024-04-12T05:18:20.258Z,99.99
2024-04-12T05:19:20.161Z,99.99
2024-04-12T05:20:20.189Z,99.99
2024-04-12T05:21:20.194Z,99.99
2024-04-12T05:22:20.125Z,99.99
2024-04-12T05:23:20.318Z,99.99
2024-04-12T05:24:20.193Z,99.99
2024-04-12T05:25:20.112Z,99.99
2024-04-12T05:26:20.079Z,99.99
2024-04-12T05:27:20.141Z,99.99
2024-04-12T05:28:20.075Z,99.99
2024-04-12T05:29:20.050Z,99.99
2024-04-12T05:30:20.079Z,99.99
2024-04-12T05:31:20.035Z,99.99
2024-04-12T05:32:20.035Z,99.99
2024-04-12T05:33:20.048Z,99.99
2024-04-12T05:34:20.043Z,99.99
2024-04-12T05:35:19.997Z,99.99
2024-04-12T05:36:20.026Z,99.99
2024-04-12T05:37:19.972Z,99.99
2024-04-12T05:38:19.965Z,99.99
2024-04-12T05:39:19.950Z,99.99
2024-04-12T05:40:19.980Z,99.99
2024-04-12T05:41:19.924Z,99.99
2024-04-12T05:42:19.962Z,99.99
2024-04-12T05:43:19.935Z,99.99
2024-04-12T05:44:19.948Z,99.99
2024-04-12T05:45:19.936Z,99.99
2024-04-12T05:46:19.913Z,99.99
2024-04-12T05:47:19.978Z,99.99
2024-04-12T05:48:19.997Z,99.99
2024-04-12T05:49:19.863Z,99.99
2024-04-12T05:50:19.819Z,99.99
2024-04-12T05:51:21.495Z,99.99
2024-04-12T05:52:19.904Z,99.99
2024-04-12T05:53:19.941Z,99.99
2024-04-12T05:54:19.774Z,99.99
2024-04-12T05:55:19.769Z,99.99
2024-04-12T05:56:19.828Z,99.99
2024-04-12T05:57:19.798Z,99.99
2024-04-12T05:58:19.733Z,99.99
2024-04-12T05:59:19.742Z,99.99
2024-04-12T06:00:19.773Z,99.99
2024-04-12T06:01:19.699Z,99.99
2024-04-12T06:02:19.751Z,99.99
2024-04-12T06:03:19.792Z,99.99
2024-04-12T06:04:19.720Z,99.99
2024-04-12T06:05:19.714Z,99.99
2024-04-12T06:06:19.663Z,99.99
2024-04-12T06:07:19.639Z,99.99
2024-04-12T06:08:19.631Z,99.99
2024-04-12T06:09:20.166Z,99.99
2024-04-12T06:10:19.609Z,99.99
2024-04-12T06:11:19.606Z,99.99
2024-04-12T06:12:19.622Z,99.99
2024-04-12T06:13:19.569Z,99.99
2024-04-12T06:14:19.566Z,99.99
2024-04-12T06:15:19.687Z,99.99
2024-04-12T06:16:19.688Z,99.99
2024-04-12T06:17:19.528Z,99.99
2024-04-12T06:18:19.599Z,99.99
2024-04-12T06:19:19.520Z,99.99
2024-04-12T06:20:19.503Z,99.99
2024-04-12T06:21:19.511Z,99.99
2024-04-12T06:22:19.466Z,99.99
2024-04-12T06:23:19.458Z,99.99
2024-04-12T06:24:19.538Z,99.99
2024-04-12T06:25:19.432Z,99.60
2024-04-12T06:26:19.430Z,99.04
2024-04-12T06:27:19.447Z,98.63
2024-04-12T06:28:19.411Z,98.33
2024-04-12T06:29:26.566Z,97.91
2024-04-12T06:30:19.459Z,97.36
2024-04-12T06:31:19.379Z,97.05
2024-04-12T06:32:19.383Z,97.15
2024-04-12T06:33:19.520Z,96.59
2024-04-12T06:34:19.348Z,95.98
2024-04-12T06:35:19.331Z,95.67
2024-04-12T06:36:19.318Z,94.71
2024-04-12T06:37:22.866Z,95.32
2024-04-12T06:38:19.300Z,93.38
2024-04-12T06:39:19.326Z,93.03
2024-04-12T06:40:19.308Z,93.33
2024-04-12T06:41:19.282Z,93.24
2024-04-12T06:42:19.381Z,92.42
2024-04-12T06:43:19.238Z,92.27
2024-04-12T06:44:19.235Z,91.86
2024-04-12T06:45:19.241Z,91.96
2024-04-12T06:46:19.217Z,90.39
2024-04-12T06:47:19.258Z,92.13
2024-04-12T06:48:19.361Z,92.64
2024-04-12T06:49:19.183Z,90.19
2024-04-12T06:50:19.258Z,87.90
2024-04-12T06:51:19.232Z,87.90
2024-04-12T06:52:19.149Z,88.78
2024-04-12T06:53:19.150Z,89.08
2024-04-12T06:54:19.175Z,88.98
2024-04-12T06:55:19.108Z,88.12
2024-04-12T06:56:19.289Z,87.71
2024-04-12T06:57:19.756Z,85.77
2024-04-12T06:58:19.085Z,85.33
2024-04-12T06:59:19.078Z,85.22
2024-04-12T07:00:19.172Z,84.61
2024-04-12T07:01:19.097Z,84.17
2024-04-12T07:02:19.034Z,84.78
2024-04-12T07:03:19.081Z,84.17
2024-04-12T07:04:19.052Z,84.64
2024-04-12T07:05:19.010Z,84.53
2024-04-12T07:06:19.032Z,84.43
2024-04-12T07:07:19.029Z,83.42
2024-04-12T07:08:18.982Z,82.70
2024-04-12T07:09:18.956Z,83.27
2024-04-12T07:10:18.944Z,83.89
2024-04-12T07:11:18.993Z,84.39
2024-04-12T07:12:18.933Z,84.25
2024-04-12T07:13:18.959Z,83.13
2024-04-12T07:14:18.930Z,82.73
2024-04-12T07:15:19.000Z,83.84
2024-04-12T07:16:18.915Z,83.91
2024-04-12T07:17:18.972Z,82.38
2024-04-12T07:18:18.999Z,81.46
2024-04-12T07:19:18.902Z,81.37
2024-04-12T07:20:18.846Z,81.46
2024-04-12T07:21:18.856Z,81.53
2024-04-12T07:22:18.847Z,81.23
2024-04-12T07:23:18.822Z,80.31
2024-04-12T07:24:18.830Z,80.31
2024-04-12T07:25:18.864Z,80.47
2024-04-12T07:26:18.779Z,80.17
2024-04-12T07:27:18.766Z,79.66
2024-04-12T07:28:18.770Z,79.86
2024-04-12T07:29:18.748Z,79.16
2024-04-12T07:30:18.794Z,78.71
2024-04-12T07:31:18.750Z,79.63
2024-04-12T07:32:18.963Z,79.32
2024-04-12T07:33:18.900Z,78.71
2024-04-12T07:34:18.723Z,78.91
2024-04-12T07:35:18.691Z,78.81
2024-04-12T07:36:18.762Z,78.00
2024-04-12T07:37:18.664Z,77.86
2024-04-12T07:38:18.661Z,78.17
2024-04-12T07:39:18.693Z,78.27
2024-04-12T07:40:18.662Z,77.76
2024-04-12T07:41:18.629Z,77.36
2024-04-12T07:42:18.692Z,77.66
2024-04-12T07:43:20.795Z,77.15
2024-04-12T07:44:18.610Z,77.12
2024-04-12T07:45:18.650Z,77.12
2024-04-12T07:46:18.570Z,76.75
2024-04-12T07:47:18.604Z,76.95
2024-04-12T07:48:18.680Z,77.05
2024-04-12T07:49:18.548Z,77.42
2024-04-12T07:50:18.526Z,77.83
2024-04-12T07:51:18.562Z,77.42
2024-04-12T07:52:18.524Z,77.01
2024-04-12T07:53:18.493Z,76.81
2024-04-12T07:54:18.611Z,77.32
2024-04-12T07:55:18.486Z,77.12
2024-04-12T07:56:18.471Z,77.15
2024-04-12T07:57:18.471Z,77.86
2024-04-12T07:58:18.533Z,77.36
2024-04-12T07:59:18.484Z,77.25
2024-04-12T08:00:18.461Z,77.62
2024-04-12T08:01:18.562Z,77.52
2024-04-12T08:02:20.856Z,76.61
2024-04-12T08:03:18.741Z,77.32
2024-04-12T08:04:18.446Z,76.91
2024-04-12T08:05:18.358Z,76.37
2024-04-12T08:06:18.352Z,76.87
2024-04-12T08:07:18.335Z,75.76
2024-04-12T08:08:18.337Z,75.46
2024-04-12T08:09:18.371Z,75.46
2024-04-12T08:10:18.315Z,75.96
2024-04-12T08:11:18.307Z,76.17
2024-04-12T08:12:18.328Z,77.08
2024-04-12T08:13:18.280Z,77.28
2024-04-12T08:14:18.265Z,76.98
2024-04-12T08:15:18.377Z,76.47
2024-04-12T08:16:18.244Z,75.52
2024-04-12T08:17:18.245Z,75.25
2024-04-12T08:18:18.403Z,76.17
2024-04-12T08:19:18.298Z,76.78
2024-04-12T08:20:18.210Z,75.76
2024-04-12T08:21:18.316Z,75.56
2024-04-12T08:22:18.287Z,76.06
2024-04-12T08:23:18.178Z,76.06
2024-04-12T08:24:18.272Z,75.76
2024-04-12T08:25:18.152Z,75.66
2024-04-12T08:26:18.148Z,75.56
2024-04-12T08:27:18.155Z,75.25
2024-04-12T08:28:18.170Z,75.82
2024-04-12T08:29:18.126Z,74.91
2024-04-12T08:30:18.142Z,74.61
2024-04-12T08:31:18.119Z,74.21
2024-04-12T08:32:18.113Z,74.30
2024-04-12T08:33:18.181Z,75.38
2024-04-12T08:34:18.086Z,74.21
2024-04-12T08:35:18.041Z,74.51
2024-04-12T08:36:18.069Z,74.30
2024-04-12T08:37:18.091Z,74.85
2024-04-12T08:38:18.010Z,74.85
2024-04-12T08:39:18.037Z,74.95
2024-04-12T08:40:18.012Z,75.15
2024-04-12T08:41:17.991Z,75.15
2024-04-12T08:42:18.051Z,75.35
2024-04-12T08:43:20.690Z,75.15
2024-04-12T08:44:17.952Z,75.56
2024-04-12T08:45:18.125Z,75.46
2024-04-12T08:46:17.922Z,75.35
2024-04-12T08:47:18.300Z,75.15
2024-04-12T08:48:18.042Z,75.86
2024-04-12T08:49:17.895Z,75.66
2024-04-12T08:50:17.924Z,75.66
2024-04-12T08:51:17.909Z,75.35
2024-04-12T08:52:17.868Z,75.79
2024-04-12T08:53:17.842Z,76.61
2024-04-12T08:54:17.913Z,76.20
2024-04-12T08:55:18.939Z,76.67
2024-04-12T08:56:17.831Z,75.66
2024-04-12T08:57:17.869Z,76.43
2024-04-12T08:58:17.788Z,76.43
2024-04-12T08:59:17.779Z,76.09
2024-04-12T09:00:17.839Z,73.76
2024-04-12T09:01:17.766Z,74.27
2024-04-12T09:02:17.762Z,75.08
2024-04-12T09:03:17.821Z,73.66
2024-04-12T09:04:17.950Z,74.37
2024-04-12T09:05:20.718Z,74.88
2024-04-12T09:06:17.809Z,74.37
2024-04-12T09:07:17.795Z,74.30
2024-04-12T09:08:17.694Z,74.61
2024-04-12T09:09:17.689Z,74.81
2024-04-12T09:10:17.721Z,74.41
2024-04-12T09:11:17.673Z,74.51
2024-04-12T09:12:17.732Z,74.51
2024-04-12T09:13:17.633Z,74.27
2024-04-12T09:14:17.615Z,74.48
2024-04-12T09:15:17.620Z,74.48
2024-04-12T09:16:17.603Z,74.37
2024-04-12T09:17:17.683Z,74.04
2024-04-12T09:18:17.935Z,74.44
2024-04-12T09:19:17.794Z,73.73
2024-04-12T09:20:17.548Z,73.93
2024-04-12T09:21:17.776Z,74.20
2024-04-12T09:22:17.526Z,73.22
2024-04-12T09:23:17.568Z,73.19
2024-04-12T09:24:17.543Z,72.99
2024-04-12T09:25:17.502Z,72.68
2024-04-12T09:26:17.507Z,72.78
2024-04-12T09:27:17.555Z,73.29
2024-04-12T09:28:17.472Z,72.58
2024-04-12T09:29:17.482Z,72.58
2024-04-12T09:30:17.535Z,73.39
2024-04-12T09:31:17.444Z,72.38
2024-04-12T09:32:17.450Z,72.55
2024-04-12T09:33:17.514Z,71.53
2024-04-12T09:34:17.533Z,72.11
2024-04-12T09:35:17.415Z,71.20
2024-04-12T09:36:17.439Z,70.86
2024-04-12T09:37:17.370Z,70.66
2024-04-12T09:38:17.450Z,70.46
2024-04-12T09:39:17.472Z,69.55
2024-04-12T09:40:17.339Z,70.15
2024-04-12T09:41:17.405Z,69.85
2024-04-12T09:42:17.363Z,69.31
2024-04-12T09:43:17.313Z,69.08
2024-04-12T09:44:17.295Z,68.67
2024-04-12T09:45:17.391Z,68.77
2024-04-12T09:46:17.266Z,68.98
2024-04-12T09:47:17.413Z,68.74
2024-04-12T09:48:17.348Z,68.07
2024-04-12T09:49:17.244Z,66.66
2024-04-12T09:50:17.243Z,66.56
2024-04-12T09:51:17.294Z,67.16
2024-04-12T09:52:17.230Z,66.96
2024-04-12T09:53:17.226Z,66.53
2024-04-12T09:54:17.343Z,66.66
2024-04-12T09:55:17.181Z,66.59
2024-04-12T09:56:17.165Z,67.23
2024-04-12T09:57:17.347Z,68.27
2024-04-12T09:58:17.176Z,68.77
2024-04-12T09:59:17.136Z,68.87
2024-04-12T10:00:17.290Z,69.08
2024-04-12T10:01:17.118Z,69.38
2024-04-12T10:02:17.101Z,69.48
2024-04-12T10:03:17.182Z,68.77
2024-04-12T10:04:17.131Z,69.08
2024-04-12T10:05:17.120Z,69.51
2024-04-12T10:06:17.099Z,69.82
2024-04-12T10:07:17.072Z,69.92
2024-04-12T10:08:17.055Z,69.85
2024-04-12T10:09:17.185Z,69.92
2024-04-12T10:10:17.054Z,69.31
2024-04-12T10:11:17.070Z,69.08
2024-04-12T10:12:17.036Z,69.08
2024-04-12T10:13:17.010Z,69.08
2024-04-12T10:14:16.995Z,68.33
2024-04-12T10:15:17.092Z,68.74
2024-04-12T10:16:16.994Z,67.50
2024-04-12T10:17:17.075Z,67.19
2024-04-12T10:18:17.102Z,67.33
2024-04-12T10:19:16.969Z,67.90
2024-04-12T10:20:16.935Z,67.80
2024-04-12T10:21:16.968Z,67.10
2024-04-12T10:22:16.895Z,67.40
2024-04-12T10:23:16.897Z,67.60
2024-04-12T10:24:16.941Z,67.16
2024-04-12T10:25:16.875Z,66.56
2024-04-12T10:26:16.877Z,66.42
2024-04-12T10:27:16.916Z,66.50
2024-04-12T10:28:16.856Z,65.19
2024-04-12T10:29:16.832Z,64.98
2024-04-12T10:30:16.880Z,65.92
2024-04-12T10:31:16.805Z,65.65
2024-04-12T10:32:16.836Z,66.22
2024-04-12T10:33:16.909Z,66.66
2024-04-12T10:34:16.791Z,66.56
2024-04-12T10:35:16.772Z,66.46
2024-04-12T10:36:17.042Z,66.86
2024-04-12T10:37:17.438Z,67.07
2024-04-12T10:38:27.386Z,67.07
2024-04-12T10:39:16.825Z,67.19
2024-04-12T10:40:16.709Z,67.27
2024-04-12T10:41:16.845Z,67.36
2024-04-12T10:42:16.702Z,66.42
2024-04-12T10:43:16.674Z,66.02
2024-04-12T10:44:16.667Z,66.13
2024-04-12T10:45:16.918Z,66.22
2024-04-12T10:46:16.661Z,66.02
2024-04-12T10:47:16.659Z,65.62
2024-04-12T10:48:16.692Z,66.09
2024-04-12T10:49:16.601Z,65.59
2024-04-12T10:50:16.746Z,65.59
2024-04-12T10:51:16.946Z,65.46
2024-04-12T10:52:16.582Z,65.16
2024-04-12T10:53:16.610Z,64.72
2024-04-12T10:54:16.615Z,64.22
2024-04-12T10:55:16.576Z,64.05
2024-04-12T10:56:16.537Z,65.06
2024-04-12T10:57:16.524Z,65.06
2024-04-12T10:58:16.506Z,64.72
2024-04-12T10:59:16.553Z,64.86
2024-04-12T11:00:16.856Z,65.66
2024-04-12T11:01:16.490Z,65.36
2024-04-12T11:02:16.467Z,65.26
2024-04-12T11:03:18.786Z,65.29
2024-04-12T11:04:16.610Z,64.02
2024-04-12T11:05:16.457Z,64.62
2024-04-12T11:06:16.509Z,64.42
2024-04-12T11:07:16.408Z,64.92
2024-04-12T11:08:23.230Z,65.26
2024-04-12T11:09:16.502Z,65.59
2024-04-12T11:10:16.391Z,65.82
2024-04-12T11:11:16.464Z,66.46
2024-04-12T11:12:16.427Z,65.95
2024-04-12T11:13:16.349Z,64.95
2024-04-12T11:14:16.328Z,60.91
2024-04-12T11:15:16.392Z,60.25
2024-04-12T11:16:16.318Z,60.18
2024-04-12T11:17:16.313Z,59.42
2024-04-12T11:18:16.386Z,59.22
2024-04-12T11:19:16.363Z,59.34
2024-04-12T11:20:16.263Z,60.31
2024-04-12T11:21:16.436Z,61.24
2024-04-12T11:22:16.241Z,62.75
2024-04-12T11:23:16.284Z,61.55
2024-04-12T11:24:16.248Z,58.49
2024-04-12T11:25:16.297Z,59.86
2024-04-12T11:26:16.205Z,57.76
2024-04-12T11:27:16.217Z,57.83
2024-04-12T11:28:16.203Z,58.70
2024-04-12T11:29:16.186Z,57.07
2024-04-12T11:30:16.236Z,56.77
2024-04-12T11:31:17.330Z,56.80
2024-04-12T11:32:16.139Z,56.80
2024-04-12T11:33:21.777Z,56.43
2024-04-12T11:34:18.214Z,56.43
2024-04-12T11:35:16.260Z,56.80
2024-04-12T11:36:16.128Z,55.98
2024-04-12T11:37:16.081Z,55.87
2024-04-12T11:38:16.079Z,56.30
2024-04-12T11:39:16.116Z,56.57
2024-04-12T11:40:16.078Z,55.67
2024-04-12T11:41:16.041Z,56.48
2024-04-12T11:42:16.068Z,55.77
2024-04-12T11:43:16.019Z,55.77
2024-04-12T11:44:16.040Z,57.00
2024-04-12T11:45:16.240Z,57.60
2024-04-12T11:46:16.034Z,56.70
2024-04-12T11:47:16.003Z,58.06
2024-04-12T11:48:16.511Z,58.92
2024-04-12T11:49:15.977Z,59.22
2024-04-12T11:50:15.951Z,59.29
2024-04-12T11:51:15.961Z,59.39
2024-04-12T11:52:15.972Z,58.51
2024-04-12T11:53:15.913Z,59.42
2024-04-12T11:54:15.965Z,58.94
2024-04-12T11:55:15.887Z,59.55
2024-04-12T11:56:15.882Z,59.55
2024-04-12T11:57:15.903Z,59.22
2024-04-12T11:58:16.501Z,59.09
2024-04-12T11:59:15.848Z,58.29
2024-04-12T12:00:16.003Z,58.39
2024-04-12T12:01:15.828Z,58.99
2024-04-12T12:02:15.925Z,58.46
2024-04-12T12:03:17.559Z,58.76
2024-04-12T12:04:15.830Z,59.46
2024-04-12T12:05:15.786Z,58.26
2024-04-12T12:06:15.815Z,58.09
2024-04-12T12:07:15.775Z,58.81
2024-04-12T12:08:15.755Z,60.02
2024-04-12T12:09:15.814Z,59.65
2024-04-12T12:10:15.750Z,60.15
2024-04-12T12:11:15.728Z,60.98
2024-04-12T12:12:15.829Z,61.08
2024-04-12T12:13:17.999Z,60.48
2024-04-12T12:14:15.742Z,61.08
2024-04-12T12:15:16.228Z,61.71
2024-04-12T12:16:15.706Z,62.05
2024-04-12T12:17:15.659Z,62.88
2024-04-12T12:18:15.723Z,62.88
2024-04-12T12:19:17.906Z,64.06
2024-04-12T12:20:15.673Z,63.25
2024-04-12T12:21:15.860Z,62.85
2024-04-12T12:22:15.620Z,63.18
2024-04-12T12:23:15.599Z,63.92
2024-04-12T12:24:15.646Z,64.92
2024-04-12T12:25:15.592Z,64.22
2024-04-12T12:26:15.622Z,64.49
2024-04-12T12:27:15.615Z,64.39
2024-04-12T12:28:15.556Z,63.85
2024-04-12T12:29:15.525Z,63.18
2024-04-12T12:30:15.988Z,63.18
2024-04-12T12:31:15.512Z,63.79
2024-04-12T12:32:23.417Z,64.09
2024-04-12T12:33:15.709Z,63.45
2024-04-12T12:34:15.687Z,62.52
2024-04-12T12:35:15.464Z,62.32
2024-04-12T12:36:15.486Z,63.06
2024-04-12T12:37:15.444Z,60.42
2024-04-12T12:38:15.442Z,58.76
2024-04-12T12:39:15.509Z,59.53
2024-04-12T12:40:15.432Z,56.35
2024-04-12T12:41:15.402Z,55.17
2024-04-12T12:42:15.459Z,51.52
2024-04-12T12:43:15.375Z,47.60
2024-04-12T12:44:15.373Z,44.76
2024-04-12T12:45:15.977Z,42.48
2024-04-12T12:46:15.374Z,39.50
2024-04-12T12:47:15.410Z,37.57
2024-04-12T12:48:15.440Z,38.09
2024-04-12T12:49:15.340Z,37.15
2024-04-12T12:50:15.333Z,37.40
2024-04-12T12:51:15.403Z,37.51
2024-04-12T12:52:15.317Z,39.79